Main page
METAR-TAF:

METAR-TAF

Airports :

Bluefields Airport

Bluefields, Nicaragua

latitude: 12-00N, longitude: 083-46W, elevation: 5 m

Current weather observation

The report was made 1 hour and 15 minutes ago, at 23:00 UTC
Wind 4 kt from the East
Temperature 29°C
Humidity 89%
Pressure 1009 hPa
Visibility 10 km or more
Scattered clouds at a height of 1800 ft
Scattered clouds at a height of 9000 ft

METAR: MNBL 232300Z 09004KT 9999 SCT018 SCT090 29/27 Q1009

Time: 18:15 (00:15 UTC)

Forecast

The report was made 2 hours and 21 minutes ago, at 21:54 UTC
Forecast valid from 24 at 00 UTC to 24 at 24 UTC
Wind 4 kt from the East
Visibility 10 km or more
Few clouds at a height of 1800 ft, Cumulonimbus.
Scattered clouds at a height of 9000 ft
Temporary
from 24 at 03 UTC to 24 at 08 UTC
Wind 4 kt from the Southeast
Visibility: 5000 m
Few clouds at a height of 1600 ft, Cumulonimbus.
Broken clouds at a height of 1800 ft

TAF: MNBL 232154Z 2400/2424 10004KT 9999 FEW018CB SCT090 TEMPO 2403/2408 13004KT 5000 DZ/TSRA FEW016CB BKN018

Weather observations and forecasts of more than 4000 airports (METAR and TAF reports).

The available stations are represented by yellow and red dots on the map.

Hover mouse over dot to see the name of the station.

Then click to see weather observations and forecasts.

To change the map : click on the green buttons with a black cross to zoom in, on the green button with a dash to zoom out, or on the green arrows for adjacent maps.


METAR-TAF: